createdAt,value
2023-01-13T00:01:23.722Z,11.50
2023-01-13T00:03:50.963Z,11.50
2023-01-13T00:06:21.408Z,11.30
2023-01-13T00:08:50.187Z,10.10
2023-01-13T00:11:17.831Z,10.30
2023-01-13T00:13:44.575Z,10.60
2023-01-13T00:18:39.335Z,10.20
2023-01-13T00:21:14.730Z,9.50
2023-01-13T00:23:42.122Z,8.90
2023-01-13T00:26:17.650Z,9.00
2023-01-13T00:28:44.441Z,11.80
2023-01-13T00:31:17.573Z,9.50
2023-01-13T00:33:45.130Z,9.10
2023-01-13T00:36:14.195Z,9.90
2023-01-13T00:38:43.135Z,10.00
2023-01-13T00:41:12.980Z,9.50
2023-01-13T00:43:40.384Z,10.90
2023-01-13T00:46:09.057Z,9.90
2023-01-13T00:48:36.761Z,9.20
2023-01-13T00:51:12.186Z,8.90
2023-01-13T00:53:41.497Z,8.70
2023-01-13T00:56:18.125Z,8.50
2023-01-13T00:58:46.158Z,8.80
2023-01-13T01:01:16.234Z,9.40
2023-01-13T01:03:43.005Z,8.30
2023-01-13T01:08:39.273Z,9.20
2023-01-13T01:11:11.704Z,8.80
2023-01-13T01:13:38.855Z,9.80
2023-01-13T01:16:08.981Z,8.40
2023-01-13T01:18:37.750Z,8.30
2023-01-13T01:21:05.845Z,8.50
2023-01-13T01:23:33.731Z,7.50
2023-01-13T01:26:07.126Z,7.70
2023-01-13T01:28:34.138Z,6.70
2023-01-13T01:31:02.106Z,6.20
2023-01-13T01:33:28.942Z,6.90
2023-01-13T01:38:23.570Z,5.90
2023-01-13T01:40:50.245Z,6.10
2023-01-13T01:46:04.597Z,5.60
2023-01-13T01:48:40.528Z,5.60
2023-01-13T01:51:12.178Z,5.70
2023-01-13T01:53:39.459Z,5.00
2023-01-13T01:56:09.342Z,6.70
2023-01-13T01:58:45.654Z,5.80
2023-01-13T02:01:14.282Z,5.50
2023-01-13T02:03:45.235Z,5.70
2023-01-13T02:06:13.549Z,5.80
2023-01-13T02:08:41.417Z,5.00
2023-01-13T02:11:30.970Z,4.90
2023-01-13T02:13:57.817Z,6.00
2023-01-13T02:16:24.950Z,5.50
2023-01-13T02:19:15.712Z,5.90
2023-01-13T02:21:54.412Z,4.70
2023-01-13T02:24:48.886Z,5.30
2023-01-13T02:28:00.272Z,5.10
2023-01-13T02:31:01.410Z,4.90
2023-01-13T02:33:49.471Z,5.20
2023-01-13T02:36:35.534Z,5.50
2023-01-13T02:39:17.375Z,5.70
2023-01-13T02:42:28.029Z,7.20
2023-01-13T02:45:03.289Z,7.60
2023-01-13T02:47:35.730Z,8.50
2023-01-13T02:50:11.066Z,8.50
2023-01-13T02:52:43.887Z,8.30
2023-01-13T02:55:19.185Z,6.30
2023-01-13T02:57:48.410Z,6.80
2023-01-13T03:00:17.070Z,5.20
2023-01-13T03:02:43.860Z,5.40
2023-01-13T03:05:15.424Z,5.00
2023-01-13T03:07:57.483Z,5.50
2023-01-13T03:10:33.614Z,5.20
2023-01-13T03:13:24.030Z,6.10
2023-01-13T03:16:13.409Z,5.90
2023-01-13T03:18:52.938Z,5.40
2023-01-13T03:21:40.869Z,4.60
2023-01-13T03:24:12.006Z,4.80
2023-01-13T03:26:51.869Z,5.30
2023-01-13T03:29:28.069Z,4.70
2023-01-13T03:32:21.755Z,5.60
2023-01-13T03:34:59.659Z,5.40
2023-01-13T03:37:33.991Z,6.00
2023-01-13T03:40:07.614Z,5.40
2023-01-13T03:42:36.774Z,5.50
2023-01-13T03:45:12.597Z,5.10
2023-01-13T03:47:49.463Z,5.40
2023-01-13T03:50:24.450Z,4.90
2023-01-13T03:53:05.247Z,4.60
2023-01-13T03:55:36.637Z,4.50
2023-01-13T03:58:14.212Z,4.40
2023-01-13T04:00:59.818Z,4.90
2023-01-13T04:03:32.217Z,4.50
2023-01-13T04:06:09.696Z,4.60
2023-01-13T04:08:40.125Z,4.50
2023-01-13T04:11:14.734Z,4.40
2023-01-13T04:13:44.772Z,4.60
2023-01-13T04:16:12.281Z,5.10
2023-01-13T04:18:40.109Z,4.90
2023-01-13T04:21:07.925Z,5.80
2023-01-13T04:23:34.575Z,6.10
2023-01-13T04:28:27.979Z,5.00
2023-01-13T04:33:21.443Z,5.00
2023-01-13T04:35:48.995Z,4.80
2023-01-13T04:38:19.035Z,4.80
2023-01-13T04:40:46.174Z,5.30
2023-01-13T04:43:13.420Z,5.30
2023-01-13T04:45:40.052Z,5.40
2023-01-13T04:48:06.794Z,7.70
2023-01-13T04:53:01.376Z,7.00
2023-01-13T04:55:29.621Z,6.40
2023-01-13T04:58:02.179Z,6.30
2023-01-13T05:00:28.983Z,6.30
2023-01-13T05:02:55.695Z,6.10
2023-01-13T05:07:48.911Z,5.90
2023-01-13T05:13:01.089Z,5.70
2023-01-13T05:15:46.682Z,6.50
2023-01-13T05:18:13.459Z,5.70
2023-01-13T05:23:25.241Z,6.60
2023-01-13T05:25:51.965Z,7.10
2023-01-13T05:30:47.294Z,6.30
2023-01-13T05:33:16.666Z,6.10
2023-01-13T05:35:45.660Z,8.90
2023-01-13T05:38:13.179Z,7.50
2023-01-13T05:40:59.709Z,8.90
2023-01-13T05:43:27.312Z,8.10
2023-01-13T05:45:59.829Z,9.80
2023-01-13T05:48:29.987Z,7.30
2023-01-13T05:50:57.134Z,6.70
2023-01-13T05:53:24.853Z,7.70
2023-01-13T05:55:52.351Z,7.40
2023-01-13T05:58:20.972Z,7.70
2023-01-13T06:00:47.999Z,7.10
2023-01-13T06:03:16.324Z,7.10
2023-01-13T06:05:43.701Z,6.70
2023-01-13T06:08:10.403Z,7.50
2023-01-13T06:13:04.407Z,5.50
2023-01-13T06:15:32.082Z,4.90
2023-01-13T06:17:58.835Z,5.20
2023-01-13T06:22:54.312Z,5.00
2023-01-13T06:25:46.789Z,6.20
2023-01-13T06:28:13.690Z,7.90
2023-01-13T06:30:48.058Z,7.10
2023-01-13T06:33:18.653Z,6.70
2023-01-13T06:35:52.948Z,6.40
2023-01-13T06:38:23.840Z,6.60
2023-01-13T06:40:50.512Z,7.30
2023-01-13T06:43:17.787Z,12.80
2023-01-13T06:45:47.306Z,21.50
2023-01-13T06:48:15.095Z,9.60
2023-01-13T06:50:42.457Z,6.90
2023-01-13T06:53:09.911Z,8.00
2023-01-13T06:55:36.977Z,8.10
2023-01-13T06:58:04.222Z,7.40
2023-01-13T07:00:32.488Z,9.40
2023-01-13T07:03:09.094Z,9.70
2023-01-13T07:05:35.716Z,8.00
2023-01-13T07:08:02.503Z,7.20
2023-01-13T07:13:16.946Z,8.90
2023-01-13T07:15:56.510Z,9.10
2023-01-13T07:18:23.325Z,7.60
2023-01-13T07:23:24.940Z,5.90
2023-01-13T07:25:51.662Z,6.80
2023-01-13T07:30:45.009Z,6.30
2023-01-13T07:35:38.279Z,8.50
2023-01-13T07:40:31.661Z,8.40
2023-01-13T07:45:43.694Z,11.10
2023-01-13T07:48:10.324Z,14.30
2023-01-13T07:50:37.027Z,14.20
2023-01-13T07:55:30.932Z,8.90
2023-01-13T07:57:57.520Z,10.00
2023-01-13T08:00:24.380Z,9.40
2023-01-13T08:02:51.168Z,10.00
2023-01-13T08:07:44.998Z,9.90
2023-01-13T08:10:11.882Z,10.00
2023-01-13T08:12:57.376Z,8.90
2023-01-13T08:15:23.987Z,8.10
2023-01-13T08:17:50.602Z,8.30
2023-01-13T08:20:17.383Z,7.90
2023-01-13T08:25:11.081Z,8.70
2023-01-13T08:27:37.971Z,7.90
2023-01-13T08:30:05.899Z,8.10
2023-01-13T08:32:32.717Z,7.70
2023-01-13T08:34:59.298Z,8.50
2023-01-13T08:37:26.012Z,8.60
2023-01-13T08:42:19.456Z,10.40
2023-01-13T08:47:12.703Z,10.90
2023-01-13T08:52:06.042Z,8.50
2023-01-13T08:54:32.690Z,9.30
2023-01-13T08:59:26.243Z,9.80
2023-01-13T09:01:53.155Z,10.30
2023-01-13T09:04:23.171Z,8.70
2023-01-13T09:06:51.149Z,9.40
2023-01-13T09:09:17.929Z,8.50
2023-01-13T09:12:05.662Z,10.50
2023-01-13T09:14:35.174Z,11.30
2023-01-13T09:17:02.236Z,10.50
2023-01-13T09:19:29.921Z,11.20
2023-01-13T09:21:57.265Z,11.40
2023-01-13T09:24:24.913Z,12.80
2023-01-13T09:26:51.615Z,12.50
2023-01-13T09:29:18.858Z,13.10
2023-01-13T09:31:45.992Z,11.60
2023-01-13T09:34:38.690Z,10.70
2023-01-13T09:37:06.945Z,11.00
2023-01-13T09:39:34.822Z,11.50
2023-01-13T09:42:44.290Z,10.90
2023-01-13T09:45:17.027Z,18.50
2023-01-13T09:50:22.144Z,10.30
2023-01-13T09:52:49.168Z,11.70
2023-01-13T09:55:26.832Z,10.20
2023-01-13T09:57:53.449Z,11.20
2023-01-13T10:00:28.897Z,10.70
2023-01-13T10:03:22.658Z,10.70
2023-01-13T10:06:17.183Z,10.50
2023-01-13T10:08:47.141Z,10.80
2023-01-13T10:11:40.880Z,11.40
2023-01-13T10:14:19.112Z,12.00
2023-01-13T10:16:48.514Z,12.40
2023-01-13T10:19:22.830Z,11.50
2023-01-13T10:22:04.957Z,11.60
2023-01-13T10:24:34.515Z,11.40
2023-01-13T10:27:01.194Z,10.80
2023-01-13T10:31:57.320Z,9.80
2023-01-13T10:34:25.407Z,9.50
2023-01-13T10:37:09.831Z,9.10
2023-01-13T10:39:46.197Z,9.50
2023-01-13T10:42:16.083Z,11.30
2023-01-13T10:45:00.643Z,10.80
2023-01-13T10:47:34.433Z,9.30
2023-01-13T10:50:13.169Z,9.50
2023-01-13T10:55:32.041Z,10.00
2023-01-13T10:58:18.668Z,11.00
2023-01-13T11:00:47.287Z,10.30
2023-01-13T11:03:15.735Z,10.70
2023-01-13T11:05:50.359Z,12.20
2023-01-13T11:08:32.099Z,11.40
2023-01-13T11:10:59.767Z,11.10
2023-01-13T11:13:57.815Z,11.30
2023-01-13T11:16:25.904Z,10.70
2023-01-13T11:19:14.221Z,11.00
2023-01-13T11:21:52.343Z,11.80
2023-01-13T11:24:26.034Z,12.70
2023-01-13T11:27:13.009Z,13.80
2023-01-13T11:30:01.978Z,14.20
2023-01-13T11:32:33.736Z,13.80
2023-01-13T11:35:20.584Z,13.50
2023-01-13T11:37:58.464Z,15.00
2023-01-13T11:40:32.898Z,14.70
2023-01-13T11:43:02.419Z,13.40
2023-01-13T11:45:46.438Z,13.50
2023-01-13T11:48:17.563Z,14.00
2023-01-13T11:51:09.313Z,12.50
2023-01-13T11:53:42.106Z,17.00
2023-01-13T11:56:18.122Z,15.40
2023-01-13T11:59:07.947Z,16.70
2023-01-13T12:01:45.003Z,14.40
2023-01-13T12:04:34.077Z,16.90
2023-01-13T12:07:17.794Z,15.50
2023-01-13T12:10:03.747Z,15.30
2023-01-13T12:12:35.205Z,16.10
2023-01-13T12:15:22.555Z,15.30
2023-01-13T12:18:16.911Z,18.30
2023-01-13T12:20:58.623Z,16.20
2023-01-13T12:23:32.476Z,18.20
2023-01-13T12:26:05.328Z,17.70
2023-01-13T12:28:43.022Z,19.00
2023-01-13T12:31:10.618Z,19.50
2023-01-13T12:34:04.977Z,19.50
2023-01-13T12:36:54.912Z,18.60
2023-01-13T12:39:49.535Z,20.50
2023-01-13T12:42:45.911Z,20.00
2023-01-13T12:45:12.522Z,20.00
2023-01-13T12:50:22.917Z,19.40
2023-01-13T12:52:51.294Z,20.10
2023-01-13T12:55:26.278Z,19.10
2023-01-13T12:58:05.878Z,20.10
2023-01-13T13:00:42.006Z,20.90
2023-01-13T13:03:12.471Z,20.80
2023-01-13T13:06:03.855Z,20.90
2023-01-13T13:08:44.780Z,22.10
2023-01-13T13:11:33.415Z,24.00
2023-01-13T13:14:02.686Z,20.70
2023-01-13T13:16:30.077Z,23.00
2023-01-13T13:19:18.584Z,22.10
2023-01-13T13:22:14.068Z,20.30
2023-01-13T13:24:43.130Z,19.10
2023-01-13T13:27:21.962Z,20.20
2023-01-13T13:29:58.195Z,20.10
2023-01-13T13:32:49.975Z,20.70
2023-01-13T13:35:41.539Z,20.50
2023-01-13T13:38:48.605Z,19.80
2023-01-13T13:41:39.969Z,20.40
2023-01-13T13:44:39.481Z,21.00
2023-01-13T13:47:07.564Z,19.70
2023-01-13T13:49:36.073Z,20.30
2023-01-13T13:52:12.356Z,20.70
2023-01-13T13:54:43.294Z,20.60
2023-01-13T13:57:17.941Z,20.20
2023-01-13T13:59:45.031Z,17.90
2023-01-13T14:02:20.809Z,19.80
2023-01-13T14:04:48.027Z,19.50
2023-01-13T14:07:21.044Z,20.50
2023-01-13T14:09:54.472Z,21.30
2023-01-13T14:12:27.269Z,19.10
2023-01-13T14:14:56.926Z,18.80
2023-01-13T14:17:31.183Z,18.30
2023-01-13T14:20:02.700Z,17.90
2023-01-13T14:22:29.373Z,18.10
2023-01-13T14:24:57.842Z,18.00
2023-01-13T14:27:27.785Z,18.40
2023-01-13T14:29:58.139Z,18.20
2023-01-13T14:32:32.341Z,18.80
2023-01-13T14:34:59.357Z,17.10
2023-01-13T14:37:33.418Z,19.30
2023-01-13T14:40:00.083Z,18.60
2023-01-13T14:42:28.735Z,18.20
2023-01-13T14:44:56.442Z,22.70
2023-01-13T14:47:28.130Z,19.40
2023-01-13T14:50:16.637Z,18.30
2023-01-13T14:52:49.986Z,18.40
2023-01-13T14:58:17.103Z,18.90
2023-01-13T15:00:43.755Z,20.10
2023-01-13T15:05:45.820Z,20.70
2023-01-13T15:08:14.020Z,18.70
2023-01-13T15:10:52.787Z,18.20
2023-01-13T15:13:27.045Z,18.00
2023-01-13T15:15:57.059Z,18.50
2023-01-13T15:18:23.968Z,16.60
2023-01-13T15:20:53.297Z,17.60
2023-01-13T15:23:20.448Z,17.50
2023-01-13T15:25:49.175Z,16.70
2023-01-13T15:28:23.292Z,18.00
2023-01-13T15:30:52.948Z,18.10
2023-01-13T15:33:21.228Z,19.20
2023-01-13T15:35:50.833Z,18.50
2023-01-13T15:38:21.366Z,19.50
2023-01-13T15:40:49.547Z,19.40
2023-01-13T15:43:40.645Z,19.70
2023-01-13T15:46:32.472Z,19.40
2023-01-13T15:49:13.951Z,20.10
2023-01-13T15:51:40.539Z,19.10
2023-01-13T15:56:37.286Z,21.10
2023-01-13T15:59:05.602Z,20.20
2023-01-13T16:01:32.392Z,21.00
2023-01-13T16:03:59.121Z,17.90
2023-01-13T16:06:36.167Z,18.70
2023-01-13T16:09:04.472Z,18.90
2023-01-13T16:11:31.411Z,19.40
2023-01-13T16:13:58.330Z,18.70
2023-01-13T16:16:27.771Z,18.10
2023-01-13T16:18:55.221Z,16.20
2023-01-13T16:21:23.108Z,16.50
2023-01-13T16:23:50.986Z,17.10
2023-01-13T16:26:29.959Z,15.80
2023-01-13T16:28:58.099Z,14.80
2023-01-13T16:31:33.032Z,15.20
2023-01-13T16:34:01.548Z,15.40
2023-01-13T16:36:30.363Z,16.00
2023-01-13T16:38:57.199Z,18.70
2023-01-13T16:41:25.146Z,19.00
2023-01-13T16:43:51.950Z,20.30
2023-01-13T16:48:53.003Z,18.80
2023-01-13T16:51:21.027Z,18.90
2023-01-13T16:53:48.350Z,16.20
2023-01-13T16:56:47.164Z,16.30
2023-01-13T16:59:14.685Z,16.10
2023-01-13T17:01:43.307Z,16.60
2023-01-13T17:04:21.549Z,17.10
2023-01-13T17:07:00.559Z,16.10
2023-01-13T17:09:29.177Z,21.20
2023-01-13T17:11:56.671Z,15.50
2023-01-13T17:14:24.220Z,15.70
2023-01-13T17:16:53.966Z,13.90
2023-01-13T17:19:23.228Z,13.30
2023-01-13T17:21:51.143Z,17.20
2023-01-13T17:24:18.484Z,16.70
2023-01-13T17:26:50.715Z,13.70
2023-01-13T17:29:22.311Z,14.00
2023-01-13T17:31:50.465Z,12.60
2023-01-13T17:34:17.523Z,15.80
2023-01-13T17:36:44.192Z,16.30
2023-01-13T17:41:51.193Z,15.80
2023-01-13T17:44:20.542Z,13.60
2023-01-13T17:46:47.795Z,12.50
2023-01-13T17:49:16.773Z,13.10
2023-01-13T17:51:44.909Z,11.30
2023-01-13T17:54:12.546Z,12.20
2023-01-13T17:56:41.429Z,15.10
2023-01-13T17:59:10.559Z,15.40
2023-01-13T18:01:38.014Z,11.40
2023-01-13T18:04:06.612Z,13.00
2023-01-13T18:06:33.677Z,11.40
2023-01-13T18:09:00.842Z,13.40
2023-01-13T18:11:27.649Z,11.30
2023-01-13T18:13:56.870Z,10.50
2023-01-13T18:16:25.303Z,11.00
2023-01-13T18:18:53.762Z,10.70
2023-01-13T18:21:42.151Z,11.40
2023-01-13T18:24:32.461Z,12.50
2023-01-13T18:27:18.865Z,10.80
2023-01-13T18:29:46.557Z,11.10
2023-01-13T18:32:14.350Z,11.00
2023-01-13T18:34:41.330Z,10.80
2023-01-13T18:37:10.144Z,10.90
2023-01-13T18:39:37.507Z,9.80
2023-01-13T18:42:27.495Z,9.70
2023-01-13T18:44:56.993Z,10.50
2023-01-13T18:47:29.374Z,9.80
2023-01-13T18:49:57.064Z,10.90
2023-01-13T18:52:25.032Z,11.90
2023-01-13T18:54:51.957Z,12.10
2023-01-13T18:57:19.002Z,11.10
2023-01-13T18:59:45.677Z,10.20
2023-01-13T19:02:18.101Z,10.20
2023-01-13T19:04:45.187Z,10.70
2023-01-13T19:07:13.255Z,10.30
2023-01-13T19:09:42.110Z,10.50
2023-01-13T19:12:10.436Z,10.80
2023-01-13T19:14:37.911Z,10.60
2023-01-13T19:17:06.507Z,9.50
2023-01-13T19:19:33.241Z,11.90
2023-01-13T19:24:26.865Z,10.60
2023-01-13T19:26:54.639Z,10.10
2023-01-13T19:29:22.064Z,9.70
2023-01-13T19:31:48.809Z,12.50
2023-01-13T19:34:16.218Z,20.90
2023-01-13T19:36:42.987Z,12.90
2023-01-13T19:41:56.396Z,9.20
2023-01-13T19:44:41.614Z,10.40
2023-01-13T19:47:08.299Z,11.20
2023-01-13T19:52:01.590Z,10.60
2023-01-13T19:56:54.870Z,9.30
2023-01-13T19:59:28.966Z,10.20
2023-01-13T20:01:57.572Z,10.70
2023-01-13T20:04:38.479Z,9.20
2023-01-13T20:07:06.315Z,10.80
2023-01-13T20:09:34.314Z,10.50
2023-01-13T20:12:07.849Z,10.90
2023-01-13T20:14:34.633Z,9.80
2023-01-13T20:19:28.025Z,10.80
2023-01-13T20:24:21.482Z,10.70
2023-01-13T20:26:48.447Z,8.90
2023-01-13T20:29:16.476Z,10.80
2023-01-13T20:31:45.603Z,10.40
2023-01-13T20:34:16.734Z,11.00
2023-01-13T20:36:46.434Z,12.50
2023-01-13T20:39:28.911Z,10.00
2023-01-13T20:42:16.973Z,10.20
2023-01-13T20:44:50.277Z,8.40
2023-01-13T20:47:17.514Z,9.80
2023-01-13T20:49:44.683Z,8.90
2023-01-13T20:52:13.468Z,9.40
2023-01-13T20:54:43.300Z,8.90
2023-01-13T20:57:11.432Z,9.00
2023-01-13T20:59:40.677Z,10.40
2023-01-13T21:02:15.229Z,12.20
2023-01-13T21:04:43.973Z,10.50
2023-01-13T21:07:12.751Z,11.00
2023-01-13T21:09:42.214Z,11.10
2023-01-13T21:12:32.948Z,10.00
2023-01-13T21:15:18.770Z,9.20
2023-01-13T21:18:06.408Z,10.20
2023-01-13T21:20:35.995Z,10.70
2023-01-13T21:23:05.432Z,9.80
2023-01-13T21:25:35.493Z,10.00
2023-01-13T21:28:11.582Z,8.70
2023-01-13T21:30:39.668Z,10.40
2023-01-13T21:33:06.483Z,9.70
2023-01-13T21:35:33.930Z,9.60
2023-01-13T21:38:00.581Z,10.50
2023-01-13T21:40:27.305Z,9.50
2023-01-13T21:45:58.171Z,13.10
2023-01-13T21:48:25.019Z,11.10
2023-01-13T21:53:18.251Z,11.00
2023-01-13T21:55:44.857Z,10.90
2023-01-13T21:58:14.298Z,12.00
2023-01-13T22:00:42.902Z,10.30
2023-01-13T22:03:11.794Z,8.30
2023-01-13T22:05:38.869Z,8.60
2023-01-13T22:08:06.131Z,9.70
2023-01-13T22:10:33.960Z,9.40
2023-01-13T22:13:22.865Z,10.50
2023-01-13T22:15:50.026Z,14.50
2023-01-13T22:18:18.335Z,9.30
2023-01-13T22:20:46.038Z,9.10
2023-01-13T22:23:12.704Z,9.00
2023-01-13T22:25:39.352Z,13.30
2023-01-13T22:30:35.225Z,8.30
2023-01-13T22:33:01.829Z,8.60
2023-01-13T22:35:28.488Z,8.30
2023-01-13T22:37:55.140Z,10.00
2023-01-13T22:40:21.725Z,7.80
2023-01-13T22:42:48.507Z,8.10
2023-01-13T22:47:41.911Z,7.10
2023-01-13T22:52:36.377Z,6.70
2023-01-13T22:55:03.809Z,7.70
2023-01-13T22:57:35.915Z,8.70
2023-01-13T23:02:38.227Z,7.10
2023-01-13T23:05:05.228Z,7.00
2023-01-13T23:07:31.893Z,7.40
2023-01-13T23:09:58.510Z,6.90
2023-01-13T23:12:25.195Z,7.80
2023-01-13T23:17:18.344Z,6.70
2023-01-13T23:19:44.955Z,8.30
2023-01-13T23:22:13.052Z,7.60
2023-01-13T23:24:39.706Z,7.40
2023-01-13T23:27:06.331Z,9.80
2023-01-13T23:29:32.978Z,10.20
2023-01-13T23:34:26.423Z,8.60
2023-01-13T23:39:19.490Z,9.90
2023-01-13T23:41:46.141Z,15.60
2023-01-13T23:44:12.724Z,42.80
2023-01-13T23:46:39.410Z,49.50
2023-01-13T23:51:33.277Z,49.60
2023-01-13T23:53:59.964Z,51.40
2023-01-13T23:56:29.588Z,39.30
2023-01-13T23:58:56.896Z,30.60
